createdAt,value
2023-04-05T00:01:12.397Z,102207.69
2023-04-05T00:06:20.280Z,102204.84
2023-04-05T00:11:23.503Z,102207.75
2023-04-05T00:16:28.915Z,102195.94
2023-04-05T00:21:33.137Z,102196.50
2023-04-05T00:26:36.290Z,102201.97
2023-04-05T00:31:40.551Z,102204.94
2023-04-05T00:36:43.383Z,102198.88
2023-04-05T00:41:48.613Z,102204.53
2023-04-05T00:46:52.985Z,102188.94
2023-04-05T00:51:56.055Z,102194.59
2023-04-05T00:56:59.551Z,102188.59
2023-04-05T01:02:09.536Z,102193.19
2023-04-05T01:07:20.090Z,102198.22
2023-04-05T01:12:26.211Z,102189.06
2023-04-05T01:17:37.455Z,102178.63
2023-04-05T01:23:25.016Z,102175.44
2023-04-05T01:28:57.657Z,102168.44
2023-04-05T01:34:09.206Z,102157.59
2023-04-05T01:39:16.284Z,102158.63
2023-04-05T01:44:19.139Z,102151.78
2023-04-05T01:49:24.411Z,102146.66
2023-04-05T01:54:28.392Z,102136.44
2023-04-05T01:59:31.376Z,102148.13
2023-04-05T02:04:39.419Z,102137.50
2023-04-05T02:09:42.187Z,102133.13
2023-04-05T02:14:45.031Z,102135.00
2023-04-05T02:19:49.842Z,102130.41
2023-04-05T02:24:52.609Z,102133.88
2023-04-05T02:29:55.785Z,102134.84
2023-04-05T02:34:59.918Z,102133.84
2023-04-05T02:40:08.098Z,102137.25
2023-04-05T02:45:13.496Z,102136.03
2023-04-05T02:50:20.548Z,102126.06
2023-04-05T02:55:23.416Z,102130.31
2023-04-05T03:00:26.340Z,102129.63
2023-04-05T03:05:33.257Z,102125.13
2023-04-05T03:10:39.036Z,102128.09
2023-04-05T03:15:49.431Z,102123.03
2023-04-05T03:20:56.850Z,102128.94
2023-04-05T03:26:01.301Z,102114.88
2023-04-05T03:31:07.780Z,102110.94
2023-04-05T03:36:16.420Z,102115.69
2023-04-05T03:41:20.845Z,102111.41
2023-04-05T03:46:26.158Z,102119.22
2023-04-05T03:51:32.662Z,102123.63
2023-04-05T03:56:35.598Z,102119.41
2023-04-05T04:01:46.861Z,102111.09
2023-04-05T04:06:52.423Z,102100.56
2023-04-05T04:11:59.786Z,102106.91
2023-04-05T04:17:03.335Z,102112.59
2023-04-05T04:22:20.659Z,102097.00
2023-04-05T04:27:44.837Z,102095.66
2023-04-05T04:33:09.220Z,102091.50
2023-04-05T04:38:20.442Z,102095.22
2023-04-05T04:43:43.951Z,102096.31
2023-04-05T04:49:10.382Z,102099.16
2023-04-05T04:54:16.816Z,102081.94
2023-04-05T04:59:19.757Z,102086.91
2023-04-05T05:04:22.860Z,102094.25
2023-04-05T05:09:27.280Z,102082.91
2023-04-05T05:14:33.805Z,102096.81
2023-04-05T05:19:36.608Z,102088.50
2023-04-05T05:24:41.352Z,102090.09
2023-04-05T05:29:44.258Z,102086.22
2023-04-05T05:34:48.625Z,102086.47
2023-04-05T05:39:52.818Z,102083.06
2023-04-05T05:44:55.624Z,102074.91
2023-04-05T05:49:58.737Z,102064.09
2023-04-05T05:55:02.864Z,102061.09
2023-04-05T06:00:09.417Z,102062.16
2023-04-05T06:05:14.466Z,102063.28
2023-04-05T06:10:18.770Z,102065.59
2023-04-05T06:15:21.524Z,102056.56
2023-04-05T06:20:24.281Z,102057.06
2023-04-05T06:25:28.512Z,102044.69
2023-04-05T06:30:31.588Z,102044.44
2023-04-05T06:35:34.334Z,102026.16
2023-04-05T06:40:38.874Z,102021.84
2023-04-05T06:45:41.776Z,102037.34
2023-04-05T06:50:44.547Z,102034.94
2023-04-05T06:55:51.546Z,102026.38
2023-04-05T07:00:54.861Z,102030.00
2023-04-05T07:06:00.122Z,102029.19
2023-04-05T07:11:04.260Z,102039.94
2023-04-05T07:16:07.528Z,102032.56
2023-04-05T07:21:10.344Z,102032.91
2023-04-05T07:26:14.456Z,102040.94
2023-04-05T07:31:17.488Z,102043.94
2023-04-05T07:36:20.462Z,102041.25
2023-04-05T07:41:26.513Z,102039.31
2023-04-05T07:46:30.013Z,102039.09
2023-04-05T07:51:36.168Z,102029.31
2023-04-05T07:56:40.582Z,102021.59
2023-04-05T08:01:43.409Z,102037.53
2023-04-05T08:06:46.899Z,102037.97
2023-04-05T08:11:51.007Z,102033.69
2023-04-05T08:16:53.815Z,102041.78
2023-04-05T08:21:56.586Z,102032.56
2023-04-05T08:27:00.944Z,102025.47
2023-04-05T08:32:04.414Z,102023.34
2023-04-05T08:37:07.624Z,102025.88
2023-04-05T08:42:16.792Z,102021.22
2023-04-05T08:47:20.701Z,102005.84
2023-04-05T08:52:23.718Z,102004.56
2023-04-05T08:57:30.313Z,102000.63
2023-04-05T09:02:34.588Z,102001.81
2023-04-05T09:07:38.587Z,102008.69
2023-04-05T09:12:43.283Z,102003.13
2023-04-05T09:17:46.506Z,102004.63
2023-04-05T09:22:49.390Z,102004.19
2023-04-05T09:27:57.322Z,101995.94
2023-04-05T09:33:00.298Z,101990.91
2023-04-05T09:38:05.176Z,101998.72
2023-04-05T09:43:11.828Z,101998.84
2023-04-05T09:48:14.610Z,101984.41
2023-04-05T09:53:18.723Z,101982.44
2023-04-05T09:58:25.753Z,101974.84
2023-04-05T10:03:31.147Z,101978.44
2023-04-05T10:08:34.284Z,101973.38
2023-04-05T10:13:40.576Z,101969.94
2023-04-05T10:18:50.521Z,101962.72
2023-04-05T10:24:01.477Z,101956.38
2023-04-05T10:29:13.189Z,101950.88
2023-04-05T10:34:25.508Z,101938.69
2023-04-05T10:39:30.428Z,101938.28
2023-04-05T10:44:37.478Z,101942.09
2023-04-05T10:49:43.297Z,101930.81
2023-04-05T10:54:46.497Z,101923.41
2023-04-05T10:59:52.514Z,101920.84
2023-04-05T11:04:56.892Z,101917.50
2023-04-05T11:10:02.744Z,101907.94
2023-04-05T11:15:34.393Z,101889.88
2023-04-05T11:20:56.165Z,101899.53
2023-04-05T11:26:06.739Z,101897.75
2023-04-05T11:31:19.121Z,101900.22
2023-04-05T11:36:33.516Z,101892.25
2023-04-05T11:41:36.245Z,101874.81
2023-04-05T11:46:41.335Z,101873.28
2023-04-05T11:51:48.577Z,101872.03
2023-04-05T11:56:53.059Z,101858.09
2023-04-05T12:02:01.272Z,101859.91
2023-04-05T12:07:11.698Z,101846.28
2023-04-05T12:12:17.729Z,101840.69
2023-04-05T12:17:39.240Z,101830.72
2023-04-05T12:22:43.389Z,101829.66
2023-04-05T12:27:46.748Z,101840.13
2023-04-05T12:32:52.610Z,101827.94
2023-04-05T12:38:00.917Z,101827.91
2023-04-05T12:43:05.041Z,101823.03
2023-04-05T12:48:11.764Z,101824.88
2023-04-05T12:53:20.194Z,101810.34
2023-04-05T12:58:25.050Z,101825.03
2023-04-05T13:03:29.375Z,101819.47
2023-04-05T13:08:32.245Z,101814.78
2023-04-05T13:13:35.259Z,101795.72
2023-04-05T13:18:39.511Z,101794.41
2023-04-05T13:23:42.657Z,101795.41
2023-04-05T13:28:48.229Z,101783.81
2023-04-05T13:33:52.738Z,101776.53
2023-04-05T13:38:55.463Z,101770.91
2023-04-05T13:44:01.118Z,101773.25
2023-04-05T13:49:06.146Z,101768.94
2023-04-05T13:54:28.058Z,101769.59
2023-04-05T13:59:31.622Z,101762.22
2023-04-05T14:04:35.931Z,101756.72
2023-04-05T14:09:38.760Z,101766.72
2023-04-05T14:14:43.093Z,101763.03
2023-04-05T14:19:49.961Z,101756.59
2023-04-05T14:25:02.831Z,101762.31
2023-04-05T14:30:59.531Z,101756.38
2023-04-05T14:36:11.569Z,101756.53
2023-04-05T14:41:20.527Z,101740.06
2023-04-05T14:46:23.895Z,101738.66
2023-04-05T14:51:37.268Z,101738.84
2023-04-05T14:56:40.358Z,101730.72
2023-04-05T15:01:45.584Z,101729.94
2023-04-05T15:06:50.003Z,101725.03
2023-04-05T15:11:56.032Z,101722.72
2023-04-05T15:16:59.392Z,101712.59
2023-04-05T15:22:24.467Z,101722.75
2023-04-05T15:27:27.774Z,101724.25
2023-04-05T15:32:42.170Z,101716.06
2023-04-05T15:37:58.644Z,101721.06
2023-04-05T15:48:34.105Z,101703.09
2023-04-05T15:53:46.452Z,101699.75
2023-04-05T15:59:00.854Z,101694.28
2023-04-05T16:04:11.795Z,101689.94
2023-04-05T16:09:16.366Z,101694.34
2023-04-05T16:14:19.292Z,101691.44
2023-04-05T16:19:23.484Z,101681.84
2023-04-05T16:24:30.321Z,101678.47
2023-04-05T16:29:33.307Z,101684.56
2023-04-05T16:34:50.583Z,101680.84
2023-04-05T16:40:02.935Z,101671.88
2023-04-05T16:45:08.022Z,101669.06
2023-04-05T16:50:11.660Z,101664.47
2023-04-05T16:55:15.871Z,101660.94
2023-04-05T17:00:19.082Z,101654.19
2023-04-05T17:05:22.042Z,101655.13
2023-04-05T17:10:53.581Z,101661.97
2023-04-05T17:15:56.487Z,101664.00
2023-04-05T17:20:59.488Z,101666.69
2023-04-05T17:26:04.202Z,101665.78
2023-04-05T17:31:07.300Z,101664.56
2023-04-05T17:36:29.744Z,101670.66
2023-04-05T17:41:40.205Z,101663.56
2023-04-05T17:47:01.291Z,101671.41
2023-04-05T17:52:56.040Z,101678.91
2023-04-05T17:58:08.811Z,101670.25
2023-04-05T18:29:51.647Z,101686.84
2023-04-05T19:22:17.683Z,101723.06
2023-04-05T19:47:50.324Z,101735.31
2023-04-05T19:53:02.910Z,101722.75
2023-04-05T20:04:39.015Z,101718.78
2023-04-05T20:10:58.210Z,101721.53
2023-04-05T20:16:01.321Z,101715.28
2023-04-05T20:21:05.873Z,101715.84
2023-04-05T20:26:45.781Z,101722.22
2023-04-05T20:31:54.278Z,101720.00
2023-04-05T20:37:01.610Z,101713.16
2023-04-05T20:42:10.305Z,101719.38
2023-04-05T20:47:13.578Z,101701.88
2023-04-05T20:52:18.120Z,101697.72
2023-04-05T20:57:20.999Z,101702.28
2023-04-05T21:02:31.364Z,101693.34
2023-04-05T21:07:36.981Z,101689.06
2023-04-05T21:12:40.010Z,101691.44
2023-04-05T21:23:32.791Z,101679.88
2023-04-05T21:28:36.866Z,101679.88
2023-04-05T21:33:47.186Z,101676.03
2023-04-05T21:38:51.509Z,101677.72
2023-04-05T21:44:33.409Z,101677.81
2023-04-05T21:50:09.368Z,101668.13
2023-04-05T21:55:47.423Z,101667.47
2023-04-05T22:00:53.364Z,101671.88
2023-04-05T22:05:56.219Z,101671.38
2023-04-05T22:11:54.727Z,101666.84
2023-04-05T22:17:01.329Z,101668.56
2023-04-05T22:22:04.776Z,101655.06
2023-04-05T22:27:09.243Z,101654.81
2023-04-05T22:32:14.947Z,101659.84
2023-04-05T22:37:17.813Z,101661.66
2023-04-05T22:42:22.058Z,101656.34
2023-04-05T22:47:24.958Z,101651.78
2023-04-05T22:52:27.890Z,101653.50
2023-04-05T22:57:32.462Z,101656.59
2023-04-05T23:02:35.437Z,101653.72
2023-04-05T23:07:38.356Z,101653.25
2023-04-05T23:12:43.802Z,101641.28
2023-04-05T23:17:46.910Z,101639.22
2023-04-05T23:22:54.454Z,101645.44
2023-04-05T23:27:58.712Z,101642.03
2023-04-05T23:33:02.877Z,101634.63
2023-04-05T23:38:07.173Z,101626.63
2023-04-05T23:43:12.046Z,101629.22
2023-04-05T23:48:14.988Z,101622.28
2023-04-05T23:53:17.966Z,101620.34
2023-04-05T23:58:22.332Z,101611.69
